createdAt,value
2022-12-04T00:01:10.667Z,76604.28
2022-12-04T00:03:38.901Z,76604.28
2022-12-04T00:06:09.181Z,76592.03
2022-12-04T00:08:37.039Z,76596.09
2022-12-04T00:11:05.599Z,76600.19
2022-12-04T00:13:33.861Z,76594.06
2022-12-04T00:16:01.757Z,76587.94
2022-12-04T00:18:31.039Z,76594.06
2022-12-04T00:20:58.814Z,76590.00
2022-12-04T00:23:26.664Z,76600.19
2022-12-04T00:26:01.095Z,76592.03
2022-12-04T00:28:28.948Z,76596.09
2022-12-04T00:30:56.874Z,76606.31
2022-12-04T00:33:24.854Z,76596.09
2022-12-04T00:35:59.633Z,76596.09
2022-12-04T00:38:28.267Z,76594.06
2022-12-04T00:40:56.598Z,76606.31
2022-12-04T00:43:24.974Z,76612.41
2022-12-04T00:45:52.839Z,76600.19
2022-12-04T00:48:20.745Z,76600.19
2022-12-04T00:50:48.764Z,76596.09
2022-12-04T00:53:18.195Z,76590.00
2022-12-04T00:55:46.065Z,76594.06
2022-12-04T00:58:14.204Z,76596.09
2022-12-04T01:00:43.327Z,76604.28
2022-12-04T01:03:11.601Z,76592.03
2022-12-04T01:05:40.699Z,76594.06
2022-12-04T01:08:09.477Z,76590.00
2022-12-04T01:10:40.667Z,76590.00
2022-12-04T01:13:09.001Z,76583.88
2022-12-04T01:15:39.948Z,76596.09
2022-12-04T01:18:08.340Z,76600.19
2022-12-04T01:20:36.129Z,76598.16
2022-12-04T01:23:04.375Z,76604.28
2022-12-04T01:25:32.223Z,76592.03
2022-12-04T01:28:01.370Z,76579.78
2022-12-04T01:30:29.588Z,76583.88
2022-12-04T01:32:57.463Z,76587.94
2022-12-04T01:35:25.289Z,76579.78
2022-12-04T01:37:53.045Z,76577.75
2022-12-04T01:40:20.927Z,76587.94
2022-12-04T01:42:48.712Z,76592.03
2022-12-04T01:45:39.642Z,76596.09
2022-12-04T01:48:16.413Z,76590.00
2022-12-04T01:50:45.740Z,76575.72
2022-12-04T01:53:14.744Z,76575.72
2022-12-04T01:55:43.222Z,76567.56
2022-12-04T01:58:11.352Z,76563.47
2022-12-04T02:00:40.603Z,76569.59
2022-12-04T02:03:08.583Z,76575.72
2022-12-04T02:05:36.440Z,76579.78
2022-12-04T02:08:06.364Z,76596.09
2022-12-04T02:10:43.492Z,76596.09
2022-12-04T02:13:18.792Z,76596.09
2022-12-04T02:15:54.288Z,76596.09
2022-12-04T02:18:32.159Z,76612.41
2022-12-04T02:21:09.255Z,76612.41
2022-12-04T02:24:09.338Z,76616.50
2022-12-04T02:26:47.850Z,76612.41
2022-12-04T02:29:30.822Z,76604.28
2022-12-04T02:32:04.183Z,76610.38
2022-12-04T02:34:40.286Z,76608.34
2022-12-04T02:37:13.844Z,76604.28
2022-12-04T02:39:45.309Z,76610.38
2022-12-04T02:42:18.218Z,76596.09
2022-12-04T02:44:51.727Z,76596.09
2022-12-04T02:47:23.481Z,76590.00
2022-12-04T02:49:56.589Z,76585.91
2022-12-04T02:52:32.710Z,76579.78
2022-12-04T02:55:08.604Z,76579.78
2022-12-04T02:57:41.913Z,76592.03
2022-12-04T03:00:12.398Z,76592.03
2022-12-04T03:02:48.174Z,76575.72
2022-12-04T03:05:19.421Z,76571.63
2022-12-04T03:07:52.664Z,76581.84
2022-12-04T03:10:26.512Z,76596.09
2022-12-04T03:12:57.884Z,76604.28
2022-12-04T03:15:31.181Z,76587.94
2022-12-04T03:18:02.893Z,76567.56
2022-12-04T03:20:33.825Z,76585.91
2022-12-04T03:23:10.417Z,76583.88
2022-12-04T03:25:46.915Z,76585.91
2022-12-04T03:28:23.429Z,76579.78
2022-12-04T03:30:59.394Z,76581.84
2022-12-04T03:33:33.129Z,76583.88
2022-12-04T03:36:07.171Z,76567.56
2022-12-04T03:38:40.468Z,76575.72
2022-12-04T03:41:17.892Z,76577.75
2022-12-04T03:43:52.891Z,76577.75
2022-12-04T03:46:29.045Z,76598.16
2022-12-04T03:49:03.415Z,76594.06
2022-12-04T03:51:35.420Z,76585.91
2022-12-04T03:54:06.335Z,76592.03
2022-12-04T03:56:37.721Z,76587.94
2022-12-04T03:59:10.177Z,76596.09
2022-12-04T04:01:43.194Z,76587.94
2022-12-04T04:04:15.637Z,76590.00
2022-12-04T04:06:49.863Z,76592.03
2022-12-04T04:09:22.337Z,76590.00
2022-12-04T04:11:55.149Z,76585.91
2022-12-04T04:14:43.550Z,76587.94
2022-12-04T04:17:38.508Z,76581.84
2022-12-04T04:20:29.830Z,76575.72
2022-12-04T04:23:19.115Z,76571.63
2022-12-04T04:25:48.436Z,76567.56
2022-12-04T04:28:34.898Z,76553.28
2022-12-04T04:31:12.703Z,76555.31
2022-12-04T04:33:51.218Z,76559.41
2022-12-04T04:36:28.294Z,76563.47
2022-12-04T04:39:04.600Z,76559.41
2022-12-04T04:41:40.769Z,76571.63
2022-12-04T04:44:16.483Z,76575.72
2022-12-04T04:46:51.082Z,76563.47
2022-12-04T04:49:24.038Z,76565.53
2022-12-04T04:51:52.168Z,76567.56
2022-12-04T04:54:21.978Z,76559.41
2022-12-04T04:56:49.841Z,76557.38
2022-12-04T04:59:17.734Z,76553.28
2022-12-04T05:01:47.470Z,76557.38
2022-12-04T05:04:16.033Z,76547.16
2022-12-04T05:06:45.199Z,76563.47
2022-12-04T05:09:13.078Z,76553.28
2022-12-04T05:11:40.860Z,76567.56
2022-12-04T05:14:09.600Z,76571.63
2022-12-04T05:16:38.017Z,76569.59
2022-12-04T05:19:23.299Z,76555.31
2022-12-04T05:21:52.538Z,76547.16
2022-12-04T05:24:20.357Z,76545.13
2022-12-04T05:26:48.163Z,76543.09
2022-12-04T05:29:16.067Z,76561.44
2022-12-04T05:31:44.049Z,76555.31
2022-12-04T05:34:11.885Z,76571.63
2022-12-04T05:36:39.764Z,76571.63
2022-12-04T05:39:08.931Z,76571.63
2022-12-04T05:41:36.701Z,76571.63
2022-12-04T05:44:04.546Z,76579.78
2022-12-04T05:46:32.366Z,76583.88
2022-12-04T05:49:00.200Z,76587.94
2022-12-04T05:51:28.147Z,76608.34
2022-12-04T05:53:55.968Z,76604.28
2022-12-04T05:56:25.195Z,76608.34
2022-12-04T05:58:53.087Z,76602.22
2022-12-04T06:01:23.499Z,76587.94
2022-12-04T06:03:51.359Z,76579.78
2022-12-04T06:06:22.691Z,76604.28
2022-12-04T06:08:51.167Z,76596.09
2022-12-04T06:11:21.129Z,76596.09
2022-12-04T06:13:50.704Z,76600.19
2022-12-04T06:16:20.882Z,76585.91
2022-12-04T06:18:51.646Z,76579.78
2022-12-04T06:21:20.003Z,76598.16
2022-12-04T06:23:48.247Z,76596.09
2022-12-04T06:26:16.306Z,76583.88
2022-12-04T06:28:44.422Z,76598.16
2022-12-04T06:31:15.957Z,76596.09
2022-12-04T06:33:44.180Z,76587.94
2022-12-04T06:36:14.031Z,76587.94
2022-12-04T06:38:42.380Z,76583.88
2022-12-04T06:41:11.878Z,76579.78
2022-12-04T06:43:40.519Z,76579.78
2022-12-04T06:46:10.371Z,76581.84
2022-12-04T06:48:40.241Z,76567.56
2022-12-04T06:51:10.987Z,76571.63
2022-12-04T06:53:38.952Z,76575.72
2022-12-04T06:56:09.924Z,76567.56
2022-12-04T06:58:38.898Z,76569.59
2022-12-04T07:01:08.679Z,76575.72
2022-12-04T07:03:36.633Z,76575.72
2022-12-04T07:06:21.526Z,76567.56
2022-12-04T07:08:52.103Z,76571.63
2022-12-04T07:11:21.381Z,76569.59
2022-12-04T07:13:49.350Z,76571.63
2022-12-04T07:16:19.302Z,76565.53
2022-12-04T07:18:50.289Z,76581.84
2022-12-04T07:21:21.783Z,76569.59
2022-12-04T07:23:51.397Z,76565.53
2022-12-04T07:26:19.989Z,76563.47
2022-12-04T07:28:48.033Z,76563.47
2022-12-04T07:31:17.949Z,76569.59
2022-12-04T07:33:46.770Z,76571.63
2022-12-04T07:36:19.385Z,76575.72
2022-12-04T07:38:49.308Z,76575.72
2022-12-04T07:41:17.902Z,76575.72
2022-12-04T07:43:46.182Z,76563.47
2022-12-04T07:46:16.194Z,76555.31
2022-12-04T07:48:44.394Z,76545.13
2022-12-04T07:51:15.100Z,76541.06
2022-12-04T07:53:43.510Z,76534.94
2022-12-04T07:56:13.407Z,76539.00
2022-12-04T07:58:41.875Z,76534.94
2022-12-04T08:01:12.379Z,76522.69
2022-12-04T08:03:47.215Z,76516.59
2022-12-04T08:06:16.576Z,76512.50
2022-12-04T08:08:44.420Z,76502.31
2022-12-04T08:11:15.667Z,76502.31
2022-12-04T08:13:43.440Z,76502.31
2022-12-04T08:16:12.933Z,76502.31
2022-12-04T08:18:41.598Z,76510.47
2022-12-04T08:21:11.598Z,76510.47
2022-12-04T08:23:41.310Z,76510.47
2022-12-04T08:26:09.985Z,76498.22
2022-12-04T08:28:40.261Z,76502.31
2022-12-04T08:31:09.788Z,76479.88
2022-12-04T08:33:37.762Z,76486.00
2022-12-04T08:36:07.438Z,76486.00
2022-12-04T08:38:35.464Z,76488.03
2022-12-04T08:41:04.668Z,76479.88
2022-12-04T08:43:32.450Z,76477.84
2022-12-04T08:46:03.485Z,76465.63
2022-12-04T08:48:32.163Z,76473.75
2022-12-04T08:51:00.389Z,76469.69
2022-12-04T08:53:28.398Z,76461.53
2022-12-04T08:55:56.200Z,76465.63
2022-12-04T08:58:24.272Z,76449.28
2022-12-04T09:00:52.101Z,76465.63
2022-12-04T09:03:27.499Z,76465.63
2022-12-04T09:06:00.277Z,76461.53
2022-12-04T09:08:28.513Z,76461.53
2022-12-04T09:10:56.469Z,76473.75
2022-12-04T09:13:24.410Z,76467.66
2022-12-04T09:15:52.275Z,76459.50
2022-12-04T09:18:21.388Z,76461.53
2022-12-04T09:20:56.582Z,76463.56
2022-12-04T09:23:24.355Z,76455.41
2022-12-04T09:25:52.274Z,76469.69
2022-12-04T09:28:20.784Z,76477.84
2022-12-04T09:30:57.869Z,76465.63
2022-12-04T09:33:27.191Z,76453.38
2022-12-04T09:35:55.687Z,76443.19
2022-12-04T09:38:23.516Z,76432.97
2022-12-04T09:40:58.409Z,76428.91
2022-12-04T09:43:32.315Z,76404.44
2022-12-04T09:46:07.480Z,76388.13
2022-12-04T09:48:42.318Z,76375.91
2022-12-04T09:51:18.749Z,76373.84
2022-12-04T09:53:49.673Z,76349.38
2022-12-04T09:56:20.861Z,76349.38
2022-12-04T09:58:53.256Z,76337.16
2022-12-04T10:01:25.809Z,76318.81
2022-12-04T10:03:59.887Z,76329.00
2022-12-04T10:06:41.231Z,76331.03
2022-12-04T10:09:17.952Z,76331.03
2022-12-04T10:11:53.108Z,76326.97
2022-12-04T10:14:48.628Z,76335.13
2022-12-04T10:17:35.175Z,76335.13
2022-12-04T10:20:17.995Z,76337.16
2022-12-04T10:22:54.749Z,76347.34
2022-12-04T10:25:24.179Z,76335.13
2022-12-04T10:27:57.285Z,76339.19
2022-12-04T10:30:28.014Z,76347.34
2022-12-04T10:33:00.865Z,76341.22
2022-12-04T10:35:32.041Z,76326.97
2022-12-04T10:38:03.605Z,76310.66
2022-12-04T10:40:36.755Z,76302.50
2022-12-04T10:43:12.627Z,76292.28
2022-12-04T10:45:40.460Z,76286.19
2022-12-04T10:48:14.522Z,76282.09
2022-12-04T10:50:45.565Z,76276.00
2022-12-04T10:53:16.144Z,76288.22
2022-12-04T10:55:43.933Z,76276.00
2022-12-04T10:58:17.605Z,76261.72
2022-12-04T11:00:46.874Z,76265.78
2022-12-04T11:03:26.257Z,76257.63
2022-12-04T11:05:57.639Z,76265.78
2022-12-04T11:08:27.750Z,76282.09
2022-12-04T11:11:01.282Z,76284.16
2022-12-04T11:13:29.521Z,76298.41
2022-12-04T11:15:59.328Z,76308.59
2022-12-04T11:18:29.607Z,76310.66
2022-12-04T11:21:01.806Z,76312.69
2022-12-04T11:23:33.755Z,76318.81
2022-12-04T11:26:06.259Z,76316.75
2022-12-04T11:28:43.306Z,76316.75
2022-12-04T11:31:20.722Z,76318.81
2022-12-04T11:33:54.052Z,76298.41
2022-12-04T11:36:27.608Z,76324.91
2022-12-04T11:39:05.744Z,76316.75
2022-12-04T11:41:34.222Z,76339.19
2022-12-04T11:44:02.071Z,76339.19
2022-12-04T11:46:31.659Z,76353.47
2022-12-04T11:48:59.783Z,76343.28
2022-12-04T11:51:42.092Z,76347.34
2022-12-04T11:54:23.579Z,76355.50
2022-12-04T11:57:02.772Z,76341.22
2022-12-04T11:59:49.594Z,76359.59
2022-12-04T12:02:36.657Z,76343.28
2022-12-04T12:05:19.670Z,76359.59
2022-12-04T12:07:57.666Z,76353.47
2022-12-04T12:10:40.170Z,76363.66
2022-12-04T12:13:23.393Z,76367.75
2022-12-04T12:16:01.602Z,76371.81
2022-12-04T12:18:46.694Z,76404.44
2022-12-04T12:21:19.039Z,76396.28
2022-12-04T12:23:59.876Z,76408.53
2022-12-04T12:26:38.391Z,76412.59
2022-12-04T12:29:15.453Z,76412.59
2022-12-04T12:31:59.227Z,76426.88
2022-12-04T12:34:36.891Z,76416.69
2022-12-04T12:37:13.634Z,76428.91
2022-12-04T12:39:50.587Z,76432.97
2022-12-04T12:42:22.684Z,76432.97
2022-12-04T12:44:58.733Z,76424.84
2022-12-04T12:47:31.078Z,76432.97
2022-12-04T12:50:02.756Z,76424.84
2022-12-04T12:52:36.716Z,76424.84
2022-12-04T12:55:17.161Z,76412.59
2022-12-04T12:57:49.010Z,76420.75
2022-12-04T13:00:21.552Z,76420.75
2022-12-04T13:02:56.717Z,76432.97
2022-12-04T13:05:28.582Z,76447.25
2022-12-04T13:08:02.402Z,76443.19
2022-12-04T13:10:37.432Z,76443.19
2022-12-04T13:13:09.325Z,76445.22
2022-12-04T13:15:43.037Z,76443.19
2022-12-04T13:18:23.103Z,76443.19
2022-12-04T13:20:56.054Z,76430.94
2022-12-04T13:23:50.899Z,76443.19
2022-12-04T13:26:37.631Z,76441.16
2022-12-04T13:29:17.953Z,76443.19
2022-12-04T13:31:54.387Z,76443.19
2022-12-04T13:34:48.335Z,76457.44
2022-12-04T13:37:42.124Z,76461.53
2022-12-04T13:40:38.675Z,76463.56
2022-12-04T13:43:28.762Z,76469.69
2022-12-04T13:45:58.997Z,76467.66
2022-12-04T13:48:33.306Z,76471.72
2022-12-04T13:51:24.918Z,76490.06
2022-12-04T13:54:20.473Z,76492.13
2022-12-04T13:56:50.380Z,76488.03
2022-12-04T13:59:33.969Z,76483.97
2022-12-04T14:02:08.003Z,76502.31
2022-12-04T14:04:44.328Z,76494.16
2022-12-04T14:07:25.994Z,76506.38
2022-12-04T14:09:56.159Z,76510.47
2022-12-04T14:12:28.270Z,76486.00
2022-12-04T14:15:00.004Z,76475.81
2022-12-04T14:17:30.799Z,76467.66
2022-12-04T14:20:07.257Z,76453.38
2022-12-04T14:22:45.203Z,76457.44
2022-12-04T14:25:36.080Z,76483.97
2022-12-04T14:28:25.788Z,76498.22
2022-12-04T14:31:19.762Z,76490.06
2022-12-04T14:33:52.292Z,76510.47
2022-12-04T14:36:25.580Z,76502.31
2022-12-04T14:39:04.290Z,76504.34
2022-12-04T14:41:33.196Z,76492.13
2022-12-04T14:44:01.505Z,76494.16
2022-12-04T14:46:39.023Z,76490.06
2022-12-04T14:49:21.355Z,76492.13
2022-12-04T14:51:56.269Z,76510.47
2022-12-04T14:54:31.717Z,76510.47
2022-12-04T14:57:14.153Z,76526.78
2022-12-04T14:59:45.127Z,76543.09
2022-12-04T15:02:18.733Z,76543.09
2022-12-04T15:04:48.752Z,76536.97
2022-12-04T15:07:21.713Z,76543.09
2022-12-04T15:10:12.158Z,76543.09
2022-12-04T15:12:47.233Z,76547.16
2022-12-04T15:15:24.975Z,76545.13
2022-12-04T15:18:02.450Z,76545.13
2022-12-04T15:20:38.784Z,76530.84
2022-12-04T15:23:07.426Z,76545.13
2022-12-04T15:25:42.758Z,76551.25
2022-12-04T15:28:15.069Z,76539.00
2022-12-04T15:30:48.265Z,76526.78
2022-12-04T15:33:21.982Z,76543.09
2022-12-04T15:35:54.141Z,76541.06
2022-12-04T15:38:22.400Z,76536.97
2022-12-04T15:40:54.898Z,76559.41
2022-12-04T15:43:31.228Z,76557.38
2022-12-04T15:45:59.914Z,76563.47
2022-12-04T15:48:31.231Z,76561.44
2022-12-04T15:51:03.355Z,76567.56
2022-12-04T15:53:33.600Z,76563.47
2022-12-04T15:56:04.236Z,76559.41
2022-12-04T15:58:34.063Z,76563.47
2022-12-04T16:01:04.703Z,76567.56
2022-12-04T16:03:39.195Z,76571.63
2022-12-04T16:06:14.279Z,76575.72
2022-12-04T16:08:43.539Z,76585.91
2022-12-04T16:11:31.919Z,76583.88
2022-12-04T16:14:18.290Z,76573.69
2022-12-04T16:16:48.151Z,76575.72
2022-12-04T16:19:25.841Z,76579.78
2022-12-04T16:21:53.877Z,76583.88
2022-12-04T16:24:22.669Z,76577.75
2022-12-04T16:26:51.973Z,76579.78
2022-12-04T16:29:19.921Z,76577.75
2022-12-04T16:31:47.916Z,76577.75
2022-12-04T16:34:16.311Z,76581.84
2022-12-04T16:36:45.480Z,76581.84
2022-12-04T16:39:13.297Z,76583.88
2022-12-04T16:41:42.188Z,76577.75
2022-12-04T16:44:15.764Z,76581.84
2022-12-04T16:46:44.291Z,76567.56
2022-12-04T16:49:13.288Z,76571.63
2022-12-04T16:51:49.534Z,76579.78
2022-12-04T16:54:18.114Z,76577.75
2022-12-04T16:56:45.916Z,76575.72
2022-12-04T16:59:13.716Z,76575.72
2022-12-04T17:01:46.201Z,76563.47
2022-12-04T17:04:14.947Z,76587.94
2022-12-04T17:06:43.181Z,76600.19
2022-12-04T17:09:12.398Z,76585.91
2022-12-04T17:11:41.193Z,76592.03
2022-12-04T17:14:09.102Z,76596.09
2022-12-04T17:16:37.870Z,76600.19
2022-12-04T17:19:06.244Z,76596.09
2022-12-04T17:21:34.268Z,76596.09
2022-12-04T17:24:02.510Z,76592.03
2022-12-04T17:26:31.686Z,76590.00
2022-12-04T17:28:59.514Z,76577.75
2022-12-04T17:31:28.203Z,76563.47
2022-12-04T17:33:57.865Z,76563.47
2022-12-04T17:36:27.647Z,76559.41
2022-12-04T17:38:56.882Z,76563.47
2022-12-04T17:41:25.050Z,76567.56
2022-12-04T17:43:54.574Z,76573.69
2022-12-04T17:46:24.561Z,76573.69
2022-12-04T17:48:52.994Z,76571.63
2022-12-04T17:51:22.132Z,76577.75
2022-12-04T17:53:50.554Z,76587.94
2022-12-04T17:56:20.089Z,76592.03
2022-12-04T17:58:48.597Z,76592.03
2022-12-04T18:01:20.362Z,76600.19
2022-12-04T18:03:51.080Z,76604.28
2022-12-04T18:06:20.676Z,76590.00
2022-12-04T18:08:50.401Z,76596.09
2022-12-04T18:11:20.570Z,76587.94
2022-12-04T18:13:48.913Z,76587.94
2022-12-04T18:16:18.118Z,76587.94
2022-12-04T18:18:47.540Z,76592.03
2022-12-04T18:21:15.839Z,76592.03
2022-12-04T18:23:45.834Z,76571.63
2022-12-04T18:26:15.362Z,76555.31
2022-12-04T18:28:43.533Z,76549.22
2022-12-04T18:31:11.871Z,76543.09
2022-12-04T18:33:42.913Z,76530.84
2022-12-04T18:36:13.737Z,76526.78
2022-12-04T18:38:41.526Z,76532.91
2022-12-04T18:41:11.928Z,76536.97
2022-12-04T18:43:41.499Z,76530.84
2022-12-04T18:46:11.358Z,76534.94
2022-12-04T18:48:41.569Z,76545.13
2022-12-04T18:51:18.302Z,76536.97
2022-12-04T18:53:46.180Z,76539.00
2022-12-04T18:56:14.695Z,76553.28
2022-12-04T18:58:42.970Z,76547.16
2022-12-04T19:01:12.315Z,76536.97
2022-12-04T19:03:42.465Z,76530.84
2022-12-04T19:06:10.680Z,76526.78
2022-12-04T19:08:42.837Z,76524.75
2022-12-04T19:11:12.946Z,76518.63
2022-12-04T19:13:41.077Z,76524.75
2022-12-04T19:16:13.057Z,76534.94
2022-12-04T19:18:45.119Z,76534.94
2022-12-04T19:21:13.358Z,76528.81
2022-12-04T19:23:41.272Z,76526.78
2022-12-04T19:26:09.439Z,76506.38
2022-12-04T19:28:37.375Z,76506.38
2022-12-04T19:31:05.695Z,76494.16
2022-12-04T19:33:33.490Z,76502.31
2022-12-04T19:36:05.350Z,76498.22
2022-12-04T19:38:34.509Z,76502.31
2022-12-04T19:41:08.194Z,76498.22
2022-12-04T19:43:36.242Z,76490.06
2022-12-04T19:46:04.589Z,76496.19
2022-12-04T19:48:32.492Z,76504.34
2022-12-04T19:51:06.018Z,76508.44
2022-12-04T19:53:39.317Z,76502.31
2022-12-04T19:56:10.925Z,76502.31
2022-12-04T19:58:40.977Z,76500.28
2022-12-04T20:01:12.211Z,76498.22
2022-12-04T20:03:40.294Z,76514.53
2022-12-04T20:06:12.131Z,76510.47
2022-12-04T20:08:40.504Z,76496.19
2022-12-04T20:11:11.700Z,76498.22
2022-12-04T20:13:40.170Z,76490.06
2022-12-04T20:16:12.376Z,76477.84
2022-12-04T20:18:42.378Z,76490.06
2022-12-04T20:21:12.925Z,76481.91
2022-12-04T20:23:42.189Z,76465.63
2022-12-04T20:26:12.458Z,76461.53
2022-12-04T20:28:41.986Z,76445.22
2022-12-04T20:31:15.909Z,76441.16
2022-12-04T20:33:44.687Z,76441.16
2022-12-04T20:36:15.339Z,76441.16
2022-12-04T20:38:43.811Z,76437.06
2022-12-04T20:41:15.773Z,76443.19
2022-12-04T20:43:43.943Z,76437.06
2022-12-04T20:46:16.364Z,76432.97
2022-12-04T20:48:48.240Z,76428.91
2022-12-04T20:51:18.690Z,76430.94
2022-12-04T20:53:47.628Z,76424.84
2022-12-04T20:56:15.502Z,76424.84
2022-12-04T20:58:43.505Z,76435.03
2022-12-04T21:01:15.200Z,76426.88
2022-12-04T21:03:43.786Z,76410.56
2022-12-04T21:06:14.821Z,76412.59
2022-12-04T21:08:57.116Z,76416.69
2022-12-04T21:11:26.728Z,76404.44
2022-12-04T21:14:13.691Z,76412.59
2022-12-04T21:16:42.139Z,76418.72
2022-12-04T21:19:12.383Z,76422.78
2022-12-04T21:21:40.454Z,76432.97
2022-12-04T21:24:12.426Z,76428.91
2022-12-04T21:26:40.247Z,76428.91
2022-12-04T21:29:08.850Z,76435.03
2022-12-04T21:31:38.393Z,76428.91
2022-12-04T21:34:12.463Z,76428.91
2022-12-04T21:36:40.344Z,76420.75
2022-12-04T21:39:10.705Z,76414.63
2022-12-04T21:41:55.830Z,76424.84
2022-12-04T21:44:23.953Z,76414.63
2022-12-04T21:46:51.902Z,76416.69
2022-12-04T21:49:20.570Z,76414.63
2022-12-04T21:52:03.575Z,76416.69
2022-12-04T21:54:32.901Z,76412.59
2022-12-04T21:57:01.027Z,76418.72
2022-12-04T21:59:29.159Z,76416.69
2022-12-04T22:01:57.069Z,76418.72
2022-12-04T22:04:25.039Z,76424.84
2022-12-04T22:06:52.883Z,76414.63
2022-12-04T22:09:20.917Z,76410.56
2022-12-04T22:11:50.237Z,76422.78
2022-12-04T22:14:18.105Z,76424.84
2022-12-04T22:16:45.954Z,76424.84
2022-12-04T22:19:14.414Z,76432.97
2022-12-04T22:21:42.273Z,76424.84
2022-12-04T22:24:10.767Z,76418.72
2022-12-04T22:26:39.662Z,76432.97
2022-12-04T22:29:41.599Z,76424.84
2022-12-04T22:31:56.688Z,76424.84
2022-12-04T22:34:24.479Z,76424.84
2022-12-04T22:36:52.258Z,76430.94
2022-12-04T22:39:20.139Z,76435.03
2022-12-04T22:41:47.889Z,76430.94
2022-12-04T22:44:17.143Z,76447.25
2022-12-04T22:46:45.017Z,76459.50
2022-12-04T22:49:12.837Z,76469.69
2022-12-04T22:51:40.590Z,76469.69
2022-12-04T22:54:08.442Z,76473.75
2022-12-04T22:56:36.287Z,76473.75
2022-12-04T22:59:04.265Z,76490.06
2022-12-04T23:01:35.176Z,76465.63
2022-12-04T23:04:04.537Z,76469.69
2022-12-04T23:06:34.469Z,76463.56
2022-12-04T23:09:04.886Z,76465.63
2022-12-04T23:11:32.775Z,76483.97
2022-12-04T23:14:02.317Z,76479.88
2022-12-04T23:16:31.940Z,76486.00
2022-12-04T23:19:01.445Z,76461.53
2022-12-04T23:21:29.750Z,76469.69
2022-12-04T23:23:58.530Z,76473.75
2022-12-04T23:26:28.555Z,76488.03
2022-12-04T23:28:57.081Z,76486.00
2022-12-04T23:31:25.146Z,76473.75
2022-12-04T23:33:53.120Z,76496.19
2022-12-04T23:36:22.638Z,76483.97
2022-12-04T23:38:50.815Z,76488.03
2022-12-04T23:41:20.990Z,76477.84
2022-12-04T23:43:49.854Z,76490.06
2022-12-04T23:46:20.590Z,76486.00
2022-12-04T23:48:48.833Z,76483.97
2022-12-04T23:51:19.199Z,76498.22
2022-12-04T23:53:49.497Z,76506.38
2022-12-04T23:56:19.789Z,76508.44
2022-12-04T23:58:49.741Z,76522.69
